<?xml version="1.0" encoding="UTF-8" standalone="no" ?>
<gpx xmlns="http://www.topografix.com/GPX/1/1" xmlns:xsi="http://www.w3.org/2001/XMLSchema-instance" xsi:schemaLocation="http://www.topografix.com/GPX/1/1 http://www.topografix.com/GPX/1/1/gpx.xsd" version="1.1" creator="VisuGPX - https://www.visugpx.com">
  <metadata>
    <name>lyon montelimar</name>
    <desc><![CDATA[Lyon montélimard par la via rhona]]></desc>
  </metadata>
  <trk>
    <name><![CDATA[20180415225359-J2UR7]]></name>
    <trkseg>
      <trkpt lat="45.52543" lon="4.86909">
        <ele>154</ele>
        <time>2013-04-23T12:07:21Z</time>
      </trkpt>
      <trkpt lat="45.52407" lon="4.86799">
        <ele>152</ele>
        <time>2013-04-23T12:09:37Z</time>
      </trkpt>
      <trkpt lat="45.5231" lon="4.86677">
        <ele>154</ele>
        <time>2013-04-23T12:10:06Z</time>
      </trkpt>
      <trkpt lat="45.52274" lon="4.86612">
        <ele>156</ele>
        <time>2013-04-23T12:10:19Z</time>
      </trkpt>
      <trkpt lat="45.51731" lon="4.86012">
        <ele>151</ele>
        <time>2013-04-23T12:13:10Z</time>
      </trkpt>
      <trkpt lat="45.51406" lon="4.85583">
        <ele>152</ele>
        <time>2013-04-23T12:14:33Z</time>
      </trkpt>
      <trkpt lat="45.5134" lon="4.85423">
        <ele>156</ele>
        <time>2013-04-23T12:15:01Z</time>
      </trkpt>
      <trkpt lat="45.51288" lon="4.85331">
        <ele>156</ele>
        <time>2013-04-23T12:15:19Z</time>
      </trkpt>
      <trkpt lat="45.51237" lon="4.85348">
        <ele>152</ele>
        <time>2013-04-23T12:15:39Z</time>
      </trkpt>
      <trkpt lat="45.51186" lon="4.85281">
        <ele>150</ele>
        <time>2013-04-23T12:17:58Z</time>
      </trkpt>
      <trkpt lat="45.50569" lon="4.84454">
        <ele>144</ele>
        <time>2013-04-23T12:21:29Z</time>
      </trkpt>
      <trkpt lat="45.50237" lon="4.84049">
        <ele>147</ele>
        <time>2013-04-23T12:22:51Z</time>
      </trkpt>
      <trkpt lat="45.50158" lon="4.83911">
        <ele>151</ele>
        <time>2013-04-23T12:23:15Z</time>
      </trkpt>
      <trkpt lat="45.50149" lon="4.83882">
        <ele>149</ele>
        <time>2013-04-23T12:23:20Z</time>
      </trkpt>
      <trkpt lat="45.5016" lon="4.83858">
        <ele>149</ele>
        <time>2013-04-23T12:23:24Z</time>
      </trkpt>
      <trkpt lat="45.50176" lon="4.83853">
        <ele>151</ele>
        <time>2013-04-23T12:23:30Z</time>
      </trkpt>
      <trkpt lat="45.50183" lon="4.83813">
        <ele>150</ele>
        <time>2013-04-23T12:23:38Z</time>
      </trkpt>
      <trkpt lat="45.50135" lon="4.83675">
        <ele>149</ele>
        <time>2013-04-23T12:24:01Z</time>
      </trkpt>
      <trkpt lat="45.50121" lon="4.83635">
        <ele>149</ele>
        <time>2013-04-23T12:24:08Z</time>
      </trkpt>
      <trkpt lat="45.50011" lon="4.83206">
        <ele>149</ele>
        <time>2013-04-23T12:32:17Z</time>
      </trkpt>
      <trkpt lat="45.49939" lon="4.83046">
        <ele>150</ele>
        <time>2013-04-23T12:32:45Z</time>
      </trkpt>
      <trkpt lat="45.49668" lon="4.82591">
        <ele>149</ele>
        <time>2013-04-23T12:34:28Z</time>
      </trkpt>
      <trkpt lat="45.49765" lon="4.82468">
        <ele>154</ele>
        <time>2013-04-23T12:35:13Z</time>
      </trkpt>
      <trkpt lat="45.49685" lon="4.82321">
        <ele>155</ele>
        <time>2013-04-23T12:35:46Z</time>
      </trkpt>
      <trkpt lat="45.49636" lon="4.82246">
        <ele>152</ele>
        <time>2013-04-23T12:35:59Z</time>
      </trkpt>
      <trkpt lat="45.49607" lon="4.82243">
        <ele>151</ele>
        <time>2013-04-23T12:36:32Z</time>
      </trkpt>
      <trkpt lat="45.4943" lon="4.82117">
        <ele>146</ele>
        <time>2013-04-23T12:39:48Z</time>
      </trkpt>
      <trkpt lat="45.49317" lon="4.82009">
        <ele>148</ele>
        <time>2013-04-23T12:40:23Z</time>
      </trkpt>
      <trkpt lat="45.49312" lon="4.82006">
        <ele>148</ele>
        <time>2013-04-23T12:40:42Z</time>
      </trkpt>
      <trkpt lat="45.49265" lon="4.8193">
        <ele>150</ele>
        <time>2013-04-23T12:41:01Z</time>
      </trkpt>
      <trkpt lat="45.48975" lon="4.81714">
        <ele>148</ele>
        <time>2013-04-23T12:42:10Z</time>
      </trkpt>
      <trkpt lat="45.48793" lon="4.8154">
        <ele>149</ele>
        <time>2013-04-23T12:43:23Z</time>
      </trkpt>
      <trkpt lat="45.48699" lon="4.81466">
        <ele>152</ele>
        <time>2013-04-23T13:07:04Z</time>
      </trkpt>
      <trkpt lat="45.48645" lon="4.81359">
        <ele>150</ele>
        <time>2013-04-23T13:07:21Z</time>
      </trkpt>
      <trkpt lat="45.48616" lon="4.813">
        <ele>150</ele>
        <time>2013-04-23T13:07:30Z</time>
      </trkpt>
      <trkpt lat="45.48597" lon="4.81249">
        <ele>150</ele>
        <time>2013-04-23T13:07:38Z</time>
      </trkpt>
      <trkpt lat="45.48682" lon="4.81146">
        <ele>151</ele>
        <time>2013-04-23T13:07:58Z</time>
      </trkpt>
      <trkpt lat="45.48637" lon="4.81041">
        <ele>151</ele>
        <time>2013-04-23T13:08:14Z</time>
      </trkpt>
      <trkpt lat="45.48636" lon="4.80952">
        <ele>150</ele>
        <time>2013-04-23T13:08:25Z</time>
      </trkpt>
      <trkpt lat="45.48656" lon="4.80756">
        <ele>149</ele>
        <time>2013-04-23T13:08:47Z</time>
      </trkpt>
      <trkpt lat="45.48642" lon="4.80672">
        <ele>148</ele>
        <time>2013-04-23T13:08:57Z</time>
      </trkpt>
      <trkpt lat="45.48448" lon="4.80095">
        <ele>147</ele>
        <time>2013-04-23T13:10:18Z</time>
      </trkpt>
      <trkpt lat="45.48329" lon="4.79843">
        <ele>146</ele>
        <time>2013-04-23T13:11:03Z</time>
      </trkpt>
      <trkpt lat="45.48377" lon="4.79446">
        <ele>150</ele>
        <time>2013-04-23T13:12:05Z</time>
      </trkpt>
      <trkpt lat="45.48334" lon="4.79246">
        <ele>151</ele>
        <time>2013-04-23T13:12:37Z</time>
      </trkpt>
      <trkpt lat="45.48284" lon="4.78871">
        <ele>152</ele>
        <time>2013-04-23T13:13:29Z</time>
      </trkpt>
      <trkpt lat="45.48057" lon="4.78827">
        <ele>146</ele>
        <time>2013-04-23T13:15:07Z</time>
      </trkpt>
      <trkpt lat="45.48078" lon="4.78725">
        <ele>147</ele>
        <time>2013-04-23T13:15:20Z</time>
      </trkpt>
      <trkpt lat="45.48067" lon="4.78632">
        <ele>149</ele>
        <time>2013-04-23T13:15:32Z</time>
      </trkpt>
      <trkpt lat="45.48045" lon="4.78566">
        <ele>148</ele>
        <time>2013-04-23T13:15:41Z</time>
      </trkpt>
      <trkpt lat="45.47946" lon="4.78422">
        <ele>148</ele>
        <time>2013-04-23T13:16:09Z</time>
      </trkpt>
      <trkpt lat="45.47959" lon="4.78369">
        <ele>150</ele>
        <time>2013-04-23T13:18:25Z</time>
      </trkpt>
      <trkpt lat="45.47934" lon="4.78304">
        <ele>153</ele>
        <time>2013-04-23T13:18:37Z</time>
      </trkpt>
      <trkpt lat="45.47847" lon="4.7824">
        <ele>151</ele>
        <time>2013-04-23T13:18:56Z</time>
      </trkpt>
      <trkpt lat="45.47677" lon="4.78188">
        <ele>148</ele>
        <time>2013-04-23T13:19:27Z</time>
      </trkpt>
      <trkpt lat="45.47667" lon="4.78174">
        <ele>147</ele>
        <time>2013-04-23T13:19:30Z</time>
      </trkpt>
      <trkpt lat="45.47671" lon="4.78101">
        <ele>151</ele>
        <time>2013-04-23T13:19:40Z</time>
      </trkpt>
      <trkpt lat="45.47641" lon="4.78075">
        <ele>154</ele>
        <time>2013-04-23T13:19:47Z</time>
      </trkpt>
      <trkpt lat="45.47426" lon="4.77929">
        <ele>154</ele>
        <time>2013-04-23T13:21:07Z</time>
      </trkpt>
      <trkpt lat="45.47226" lon="4.77819">
        <ele>152</ele>
        <time>2013-04-23T13:23:13Z</time>
      </trkpt>
      <trkpt lat="45.47139" lon="4.77755">
        <ele>149</ele>
        <time>2013-04-23T13:23:25Z</time>
      </trkpt>
      <trkpt lat="45.47091" lon="4.77786">
        <ele>148</ele>
        <time>2013-04-23T13:23:34Z</time>
      </trkpt>
      <trkpt lat="45.47079" lon="4.77787">
        <ele>148</ele>
        <time>2013-04-23T13:23:38Z</time>
      </trkpt>
      <trkpt lat="45.47062" lon="4.77754">
        <ele>148</ele>
        <time>2013-04-23T13:24:38Z</time>
      </trkpt>
      <trkpt lat="45.46969" lon="4.77858">
        <ele>146</ele>
        <time>2013-04-23T13:25:28Z</time>
      </trkpt>
      <trkpt lat="45.4675" lon="4.77892">
        <ele>144</ele>
        <time>2013-04-23T13:26:20Z</time>
      </trkpt>
      <trkpt lat="45.46598" lon="4.77717">
        <ele>146</ele>
        <time>2013-04-23T13:27:48Z</time>
      </trkpt>
      <trkpt lat="45.46499" lon="4.77865">
        <ele>148</ele>
        <time>2013-04-23T13:28:37Z</time>
      </trkpt>
      <trkpt lat="45.46485" lon="4.77934">
        <ele>146</ele>
        <time>2013-04-23T13:28:51Z</time>
      </trkpt>
      <trkpt lat="45.46461" lon="4.77941">
        <ele>146</ele>
        <time>2013-04-23T13:29:00Z</time>
      </trkpt>
      <trkpt lat="45.46376" lon="4.77917">
        <ele>146</ele>
        <time>2013-04-23T13:29:19Z</time>
      </trkpt>
      <trkpt lat="45.46278" lon="4.77861">
        <ele>146</ele>
        <time>2013-04-23T13:29:40Z</time>
      </trkpt>
      <trkpt lat="45.46133" lon="4.77717">
        <ele>147</ele>
        <time>2013-04-23T13:30:13Z</time>
      </trkpt>
      <trkpt lat="45.46052" lon="4.77658">
        <ele>147</ele>
        <time>2013-04-23T13:30:29Z</time>
      </trkpt>
      <trkpt lat="45.46018" lon="4.77455">
        <ele>146</ele>
        <time>2013-04-23T13:31:01Z</time>
      </trkpt>
      <trkpt lat="45.45928" lon="4.77215">
        <ele>146</ele>
        <time>2013-04-23T13:31:53Z</time>
      </trkpt>
      <trkpt lat="45.45812" lon="4.77129">
        <ele>145</ele>
        <time>2013-04-23T13:32:36Z</time>
      </trkpt>
      <trkpt lat="45.45783" lon="4.77086">
        <ele>144</ele>
        <time>2013-04-23T13:32:49Z</time>
      </trkpt>
      <trkpt lat="45.45793" lon="4.76944">
        <ele>145</ele>
        <time>2013-04-23T13:33:45Z</time>
      </trkpt>
      <trkpt lat="45.45783" lon="4.76811">
        <ele>145</ele>
        <time>2013-04-23T13:35:54Z</time>
      </trkpt>
      <trkpt lat="45.45829" lon="4.765">
        <ele>147</ele>
        <time>2013-04-23T13:37:47Z</time>
      </trkpt>
      <trkpt lat="45.45794" lon="4.76163">
        <ele>143</ele>
        <time>2013-04-23T13:40:31Z</time>
      </trkpt>
      <trkpt lat="45.45824" lon="4.76161">
        <ele>145</ele>
        <time>2013-04-23T13:41:47Z</time>
      </trkpt>
      <trkpt lat="45.4587" lon="4.7608">
        <ele>146</ele>
        <time>2013-04-23T13:42:17Z</time>
      </trkpt>
      <trkpt lat="45.4583" lon="4.75986">
        <ele>146</ele>
        <time>2013-04-23T13:42:44Z</time>
      </trkpt>
      <trkpt lat="45.45762" lon="4.75991">
        <ele>145</ele>
        <time>2013-04-23T13:43:16Z</time>
      </trkpt>
      <trkpt lat="45.45715" lon="4.75935">
        <ele>144</ele>
        <time>2013-04-23T13:44:02Z</time>
      </trkpt>
      <trkpt lat="45.45674" lon="4.75738">
        <ele>146</ele>
        <time>2013-04-23T13:44:40Z</time>
      </trkpt>
      <trkpt lat="45.45591" lon="4.75531">
        <ele>146</ele>
        <time>2013-04-23T13:45:25Z</time>
      </trkpt>
      <trkpt lat="45.45544" lon="4.75471">
        <ele>146</ele>
        <time>2013-04-23T13:45:40Z</time>
      </trkpt>
      <trkpt lat="45.45496" lon="4.75436">
        <ele>144</ele>
        <time>2013-04-23T13:45:52Z</time>
      </trkpt>
      <trkpt lat="45.4542" lon="4.75419">
        <ele>142</ele>
        <time>2013-04-23T13:46:13Z</time>
      </trkpt>
      <trkpt lat="45.45011" lon="4.75373">
        <ele>144</ele>
        <time>2013-04-23T13:47:42Z</time>
      </trkpt>
      <trkpt lat="45.44831" lon="4.75374">
        <ele>136</ele>
        <time>2013-04-23T13:48:17Z</time>
      </trkpt>
      <trkpt lat="45.44655" lon="4.75422">
        <ele>143</ele>
        <time>2013-04-23T13:48:49Z</time>
      </trkpt>
      <trkpt lat="45.44498" lon="4.75491">
        <ele>141</ele>
        <time>2013-04-23T13:49:54Z</time>
      </trkpt>
      <trkpt lat="45.44392" lon="4.75499">
        <ele>146</ele>
        <time>2013-04-23T13:50:11Z</time>
      </trkpt>
      <trkpt lat="45.44292" lon="4.75564">
        <ele>144</ele>
        <time>2013-04-23T13:50:27Z</time>
      </trkpt>
      <trkpt lat="45.44151" lon="4.75534">
        <ele>147</ele>
        <time>2013-04-23T13:50:51Z</time>
      </trkpt>
      <trkpt lat="45.44126" lon="4.75552">
        <ele>148</ele>
        <time>2013-04-23T13:50:56Z</time>
      </trkpt>
      <trkpt lat="45.44069" lon="4.75653">
        <ele>146</ele>
        <time>2013-04-23T13:51:18Z</time>
      </trkpt>
      <trkpt lat="45.44018" lon="4.75676">
        <ele>143</ele>
        <time>2013-04-23T13:51:32Z</time>
      </trkpt>
      <trkpt lat="45.43831" lon="4.75645">
        <ele>147</ele>
        <time>2013-04-23T13:52:03Z</time>
      </trkpt>
      <trkpt lat="45.43755" lon="4.7568">
        <ele>148</ele>
        <time>2013-04-23T13:52:16Z</time>
      </trkpt>
      <trkpt lat="45.43675" lon="4.75753">
        <ele>146</ele>
        <time>2013-04-23T13:52:32Z</time>
      </trkpt>
      <trkpt lat="45.43587" lon="4.75755">
        <ele>145</ele>
        <time>2013-04-23T13:52:46Z</time>
      </trkpt>
      <trkpt lat="45.43501" lon="4.75729">
        <ele>144</ele>
        <time>2013-04-23T13:52:59Z</time>
      </trkpt>
      <trkpt lat="45.43446" lon="4.75697">
        <ele>143</ele>
        <time>2013-04-23T13:53:09Z</time>
      </trkpt>
      <trkpt lat="45.43398" lon="4.75631">
        <ele>144</ele>
        <time>2013-04-23T13:53:21Z</time>
      </trkpt>
      <trkpt lat="45.43257" lon="4.75537">
        <ele>145</ele>
        <time>2013-04-23T13:53:50Z</time>
      </trkpt>
      <trkpt lat="45.4316" lon="4.75441">
        <ele>143</ele>
        <time>2013-04-23T13:54:43Z</time>
      </trkpt>
      <trkpt lat="45.42931" lon="4.7509">
        <ele>142</ele>
        <time>2013-04-23T13:55:51Z</time>
      </trkpt>
      <trkpt lat="45.42289" lon="4.74311">
        <ele>141</ele>
        <time>2013-04-23T13:58:01Z</time>
      </trkpt>
      <trkpt lat="45.42212" lon="4.74233">
        <ele>143</ele>
        <time>2013-04-23T13:58:15Z</time>
      </trkpt>
      <trkpt lat="45.42092" lon="4.74147">
        <ele>147</ele>
        <time>2013-04-23T13:58:35Z</time>
      </trkpt>
      <trkpt lat="45.41873" lon="4.74054">
        <ele>141</ele>
        <time>2013-04-23T13:59:09Z</time>
      </trkpt>
      <trkpt lat="45.41631" lon="4.7401">
        <ele>144</ele>
        <time>2013-04-23T13:59:47Z</time>
      </trkpt>
      <trkpt lat="45.41494" lon="4.74015">
        <ele>144</ele>
        <time>2013-04-23T14:00:10Z</time>
      </trkpt>
      <trkpt lat="45.4148" lon="4.74">
        <ele>144</ele>
        <time>2013-04-23T14:00:13Z</time>
      </trkpt>
      <trkpt lat="45.41444" lon="4.73767">
        <ele>146</ele>
        <time>2013-04-23T14:00:45Z</time>
      </trkpt>
      <trkpt lat="45.41421" lon="4.7375">
        <ele>146</ele>
        <time>2013-04-23T14:00:53Z</time>
      </trkpt>
      <trkpt lat="45.41406" lon="4.73765">
        <ele>145</ele>
        <time>2013-04-23T14:01:01Z</time>
      </trkpt>
      <trkpt lat="45.41423" lon="4.73866">
        <ele>145</ele>
        <time>2013-04-23T14:01:15Z</time>
      </trkpt>
      <trkpt lat="45.41421" lon="4.7398">
        <ele>143</ele>
        <time>2013-04-23T14:01:29Z</time>
      </trkpt>
      <trkpt lat="45.41399" lon="4.74027">
        <ele>142</ele>
        <time>2013-04-23T14:01:38Z</time>
      </trkpt>
      <trkpt lat="45.41236" lon="4.74057">
        <ele>143</ele>
        <time>2013-04-23T14:02:08Z</time>
      </trkpt>
      <trkpt lat="45.41221" lon="4.74007">
        <ele>142</ele>
        <time>2013-04-23T14:02:15Z</time>
      </trkpt>
      <trkpt lat="45.41202" lon="4.73995">
        <ele>141</ele>
        <time>2013-04-23T14:02:19Z</time>
      </trkpt>
      <trkpt lat="45.41019" lon="4.74042">
        <ele>140</ele>
        <time>2013-04-23T14:02:49Z</time>
      </trkpt>
      <trkpt lat="45.40817" lon="4.74149">
        <ele>141</ele>
        <time>2013-04-23T14:03:22Z</time>
      </trkpt>
      <trkpt lat="45.40511" lon="4.74359">
        <ele>141</ele>
        <time>2013-04-23T14:04:14Z</time>
      </trkpt>
      <trkpt lat="45.40103" lon="4.74756">
        <ele>142</ele>
        <time>2013-04-23T14:05:34Z</time>
      </trkpt>
      <trkpt lat="45.40108" lon="4.74828">
        <ele>142</ele>
        <time>2013-04-23T14:05:44Z</time>
      </trkpt>
      <trkpt lat="45.40071" lon="4.74888">
        <ele>139</ele>
        <time>2013-04-23T14:05:56Z</time>
      </trkpt>
      <trkpt lat="45.39735" lon="4.75192">
        <ele>141</ele>
        <time>2013-04-23T14:07:07Z</time>
      </trkpt>
      <trkpt lat="45.39633" lon="4.75229">
        <ele>142</ele>
        <time>2013-04-23T14:07:25Z</time>
      </trkpt>
      <trkpt lat="45.39574" lon="4.75269">
        <ele>142</ele>
        <time>2013-04-23T14:07:36Z</time>
      </trkpt>
      <trkpt lat="45.39534" lon="4.75317">
        <ele>142</ele>
        <time>2013-04-23T14:07:45Z</time>
      </trkpt>
      <trkpt lat="45.3934" lon="4.75391">
        <ele>142</ele>
        <time>2013-04-23T14:08:19Z</time>
      </trkpt>
      <trkpt lat="45.39246" lon="4.75461">
        <ele>140</ele>
        <time>2013-04-23T14:08:37Z</time>
      </trkpt>
      <trkpt lat="45.39127" lon="4.75483">
        <ele>141</ele>
        <time>2013-04-23T14:08:59Z</time>
      </trkpt>
      <trkpt lat="45.39007" lon="4.75548">
        <ele>140</ele>
        <time>2013-04-23T14:09:21Z</time>
      </trkpt>
      <trkpt lat="45.38695" lon="4.75599">
        <ele>141</ele>
        <time>2013-04-23T14:10:14Z</time>
      </trkpt>
      <trkpt lat="45.38508" lon="4.7556">
        <ele>140</ele>
        <time>2013-04-23T14:10:46Z</time>
      </trkpt>
      <trkpt lat="45.38303" lon="4.75427">
        <ele>139</ele>
        <time>2013-04-23T14:11:24Z</time>
      </trkpt>
      <trkpt lat="45.3827" lon="4.75421">
        <ele>139</ele>
        <time>2013-04-23T14:11:30Z</time>
      </trkpt>
      <trkpt lat="45.3814" lon="4.75523">
        <ele>141</ele>
        <time>2013-04-23T14:12:02Z</time>
      </trkpt>
      <trkpt lat="45.38132" lon="4.75629">
        <ele>140</ele>
        <time>2013-04-23T14:13:19Z</time>
      </trkpt>
      <trkpt lat="45.38111" lon="4.75587">
        <ele>141</ele>
        <time>2013-04-23T14:14:03Z</time>
      </trkpt>
      <trkpt lat="45.38085" lon="4.75666">
        <ele>139</ele>
        <time>2013-04-23T14:14:52Z</time>
      </trkpt>
      <trkpt lat="45.38037" lon="4.75953">
        <ele>145</ele>
        <time>2013-04-23T14:16:22Z</time>
      </trkpt>
      <trkpt lat="45.38019" lon="4.75988">
        <ele>145</ele>
        <time>2013-04-23T14:16:27Z</time>
      </trkpt>
      <trkpt lat="45.37998" lon="4.76013">
        <ele>145</ele>
        <time>2013-04-23T14:16:31Z</time>
      </trkpt>
      <trkpt lat="45.37558" lon="4.76275">
        <ele>142</ele>
        <time>2013-04-23T14:17:37Z</time>
      </trkpt>
      <trkpt lat="45.37281" lon="4.7648">
        <ele>139</ele>
        <time>2013-04-23T14:18:22Z</time>
      </trkpt>
      <trkpt lat="45.35697" lon="4.77922">
        <ele>137</ele>
        <time>2013-04-23T14:23:48Z</time>
      </trkpt>
      <trkpt lat="45.35509" lon="4.78058">
        <ele>138</ele>
        <time>2013-04-23T14:24:26Z</time>
      </trkpt>
      <trkpt lat="45.35338" lon="4.78137">
        <ele>136</ele>
        <time>2013-04-23T14:25:01Z</time>
      </trkpt>
      <trkpt lat="45.35298" lon="4.78208">
        <ele>139</ele>
        <time>2013-04-23T14:25:20Z</time>
      </trkpt>
      <trkpt lat="45.35274" lon="4.78216">
        <ele>140</ele>
        <time>2013-04-23T14:25:25Z</time>
      </trkpt>
      <trkpt lat="45.35233" lon="4.78177">
        <ele>140</ele>
        <time>2013-04-23T14:25:34Z</time>
      </trkpt>
      <trkpt lat="45.35184" lon="4.78175">
        <ele>140</ele>
        <time>2013-04-23T14:25:44Z</time>
      </trkpt>
      <trkpt lat="45.34092" lon="4.78346">
        <ele>142</ele>
        <time>2013-04-23T14:28:49Z</time>
      </trkpt>
      <trkpt lat="45.34065" lon="4.78357">
        <ele>143</ele>
        <time>2013-04-23T14:28:55Z</time>
      </trkpt>
      <trkpt lat="45.34046" lon="4.78432">
        <ele>142</ele>
        <time>2013-04-23T14:29:11Z</time>
      </trkpt>
      <trkpt lat="45.34017" lon="4.78451">
        <ele>141</ele>
        <time>2013-04-23T14:29:59Z</time>
      </trkpt>
      <trkpt lat="45.33987" lon="4.78429">
        <ele>142</ele>
        <time>2013-04-23T14:30:50Z</time>
      </trkpt>
      <trkpt lat="45.33978" lon="4.78374">
        <ele>142</ele>
        <time>2013-04-23T14:30:57Z</time>
      </trkpt>
      <trkpt lat="45.33962" lon="4.78364">
        <ele>141</ele>
        <time>2013-04-23T14:31:00Z</time>
      </trkpt>
      <trkpt lat="45.32962" lon="4.78526">
        <ele>138</ele>
        <time>2013-04-23T14:33:58Z</time>
      </trkpt>
      <trkpt lat="45.32958" lon="4.7852">
        <ele>138</ele>
        <time>2013-04-23T14:34:03Z</time>
      </trkpt>
      <trkpt lat="45.32885" lon="4.78373">
        <ele>138</ele>
        <time>2013-04-23T14:34:53Z</time>
      </trkpt>
      <trkpt lat="45.3282" lon="4.78142">
        <ele>137</ele>
        <time>2013-04-23T14:40:52Z</time>
      </trkpt>
      <trkpt lat="45.32805" lon="4.7789">
        <ele>138</ele>
        <time>2013-04-23T14:41:29Z</time>
      </trkpt>
      <trkpt lat="45.32865" lon="4.77358">
        <ele>137</ele>
        <time>2013-04-23T14:42:42Z</time>
      </trkpt>
      <trkpt lat="45.32836" lon="4.77166">
        <ele>136</ele>
        <time>2013-04-23T14:43:09Z</time>
      </trkpt>
      <trkpt lat="45.32965" lon="4.77162">
        <ele>136</ele>
        <time>2013-04-23T14:43:37Z</time>
      </trkpt>
      <trkpt lat="45.33002" lon="4.76972">
        <ele>137</ele>
        <time>2013-04-23T14:44:10Z</time>
      </trkpt>
      <trkpt lat="45.32787" lon="4.76798">
        <ele>137</ele>
        <time>2013-04-23T14:44:58Z</time>
      </trkpt>
      <trkpt lat="45.32731" lon="4.76719">
        <ele>139</ele>
        <time>2013-04-23T14:46:05Z</time>
      </trkpt>
      <trkpt lat="45.32604" lon="4.76769">
        <ele>137</ele>
        <time>2013-04-23T14:46:36Z</time>
      </trkpt>
      <trkpt lat="45.32437" lon="4.76801">
        <ele>137</ele>
        <time>2013-04-23T14:47:09Z</time>
      </trkpt>
      <trkpt lat="45.32033" lon="4.76753">
        <ele>137</ele>
        <time>2013-04-23T14:48:29Z</time>
      </trkpt>
      <trkpt lat="45.32004" lon="4.76762">
        <ele>136</ele>
        <time>2013-04-23T14:48:35Z</time>
      </trkpt>
      <trkpt lat="45.31952" lon="4.76829">
        <ele>136</ele>
        <time>2013-04-23T14:48:51Z</time>
      </trkpt>
      <trkpt lat="45.31932" lon="4.76832">
        <ele>136</ele>
        <time>2013-04-23T14:49:05Z</time>
      </trkpt>
      <trkpt lat="45.31936" lon="4.76817">
        <ele>136</ele>
        <time>2013-04-23T14:49:17Z</time>
      </trkpt>
      <trkpt lat="45.31881" lon="4.76813">
        <ele>138</ele>
      </trkpt>
    </trkseg>
  </trk>
</gpx>